Terminal Aerodrome Forecast
Issued by NWS Wilmington, NC

Home | Current Version | Previous Version | Text Only | Print | Product List | Glossary On
Versions: 1 2 3 4 5 6 7 8 9 10 11 12 13 14 15 16
000
FTUS42 KILM 021700
TAFMYR
TAF
KMYR 021720Z 0218/0318 17010KT P6SM SCT040 SCT250
     FM030000 21010KT P6SM SCT250
     FM030400 VRB04KT P6SM SCT015
     FM031600 18008KT P6SM SCT035=

USA.gov is the U.S. government's official web portal to all federal, state and local government web resources and services.